Bridgeport, Washington
Current Conditions -  °F | °C
As of 7:53 AM on Thursday 23 Oct 2014 (Local Time) from KOMK Reporting Station
Light Rain Light Rain  
Wind Chill: 51°   Ceiling: 8000
Heat Index: 51°   Visibility: 10mi
Dew Point: 42°   Wind: 6mph
Humidity: 71%   Direction: 210°SSW
Pressure: 29.73"   Gusts: NA
Location:  48.01°N, 119.67°W
Report Text: KOMK 231453Z AUTO 21005KT 10SM -RA FEW060 BKN080 OVC095 11/06 A2973 RMK AO2 RAB52 SLP071 P0000 60000 T01060056 51018
Loading
Personal Weather Stations






























Interactive Weather Map
Tropical Storm Tracking
New forecast layout! Learn more

10-Day Weather Forecast

Advertisements
Track Severe Weather on mobile